Date,TemperatureHighF,TemperatureAvgF,TemperatureLowF,DewpointHighF,DewpointAvgF,DewpointLowF,HumidityHigh,HumidityAvg,HumidityLow,PressureMaxIn,PressureMinIn,WindSpeedMaxMPH,WindSpeedAvgMPH,GustSpeedMaxMPH,PrecipitationSumIn
2013-1-1,48,44,40,44,35,18,94,73,40,30.11,29.94,19,5,19,0.59
2013-1-2,43,39,36,41,36,32,96,87,71,30.13,29.89,7,2,14,0.02
2013-1-3,37,33,28,36,30,21,97,89,75,30.29,30.10,7,1,11,0.01
2013-1-4,38,31,26,21,16,11,74,56,34,30.38,30.28,25,8,25,0.00
2013-1-5,49,36,26,28,19,9,74,52,26,30.42,30.25,12,2,22,0.01
2013-1-6,46,41,35,36,34,28,89,77,56,30.23,30.05,11,3,15,0.00
2013-1-7,46,34,26,27,24,22,85,68,44,30.43,30.19,23,6,23,0.00
2013-1-8,53,39,29,42,33,25,94,78,59,30.46,30.37,4,0,12,0.00
2013-1-9,56,52,45,52,48,44,97,90,82,30.44,30.38,6,1,10,0.00
2013-1-10,57,53,42,52,50,38,94,89,74,30.47,30.32,6,2,11,0.00
2013-1-11,56,47,40,56,46,39,100,98,90,30.32,30.15,7,2,13,0.37
2013-1-12,69,63,56,60,57,56,100,81,68,30.16,30.08,18,5,18,0.02
2013-1-13,66,57,54,56,53,52,94,87,69,30.06,29.98,16,4,18,0.01
2013-1-14,58,54,46,57,54,45,97,96,94,30.08,29.99,12,2,14,1.34
2013-1-15,53,45,38,50,44,38,100,99,90,30.11,30.02,10,4,10,1.24
2013-1-16,56,50,44,55,49,43,100,97,81,30.04,29.94,11,1,15,0.45
2013-1-17,50,44,31,49,43,30,100,98,92,30.10,29.75,19,3,24,2.02
2013-1-18,45,32,26,30,23,14,90,70,47,30.53,30.15,18,4,18,0.01
2013-1-19,52,37,27,28,22,11,80,58,23,30.50,30.17,14,1,14,0.00
2013-1-20,51,43,39,31,24,10,65,48,25,30.16,30.05,17,4,27,0.00
2013-1-21,45,33,26,27,15,9,65,47,33,30.07,29.94,26,11,33,0.00
2013-1-22,28,21,15,10,1,-11,60,44,20,30.28,29.94,24,6,38,0.00
2013-1-23,39,30,20,25,16,2,66,57,45,30.38,30.09,14,4,22,0.00
2013-1-24,39,30,16,30,14,2,72,51,33,30.43,29.98,20,6,33,0.00
2013-1-25,39,26,13,37,22,2,95,85,56,30.46,30.14,10,2,23,0.08
2013-1-26,43,36,30,33,20,8,88,54,29,30.34,30.14,15,4,23,0.00
2013-1-27,36,29,21,29,24,16,95,82,52,30.52,30.34,3,0,7,0.03
2013-1-28,62,47,31,49,40,29,93,79,59,30.48,30.24,7,2,14,0.00
2013-1-29,67,58,48,55,50,38,96,77,52,30.24,29.96,12,3,14,0.04
2013-1-30,58,55,47,57,54,45,97,96,92,29.96,29.39,19,4,24,3.14
2013-1-31,41,30,24,36,22,16,89,71,53,30.02,29.43,31,12,32,0.01
2013-2-1,37,24,16,28,12,-1,87,60,40,30.37,29.92,30,10,30,0.00
2013-2-2,40,21,18,18,2,-8,64,43,26,30.40,30.20,11,2,17,0.00
2013-2-4,42,39,36,23,22,21,59,52,43,29.99,29.99,7,2,7,0.00
2013-2-5,51,43,32,36,28,21,67,57,47,30.00,29.92,15,5,15,0.00
2013-2-6,54,45,37,35,25,16,74,50,23,30.23,29.97,21,6,21,0.03
2013-2-7,42,36,32,37,26,17,97,71,36,30.25,30.02,12,5,12,0.62
2013-2-8,44,38,30,38,34,24,100,89,61,30.10,29.93,28,5,28,0.03
2013-2-9,54,40,28,26,21,14,76,50,28,30.33,30.08,14,4,18,0.00
2013-2-10,47,39,35,40,21,17,96,48,38,30.40,30.17,10,1,10,0.29
2013-2-11,54,49,42,51,47,40,100,94,81,30.17,29.98,8,3,21,0.10
2013-3-2,36,30,25,27,23,19,92,75,60,29.93,29.87,22,7,22,0.01
2013-3-3,28,23,19,17,15,11,83,70,56,30.04,29.91,28,10,30,0.00
2013-3-4,50,29,20,12,10,-5,70,50,10,30.19,30.02,23,9,24,0.00
2013-3-5,46,41,30,42,31,24,97,70,50,30.11,29.62,27,2,27,0.93
2013-3-6,30,25,21,25,20,17,92,83,77,30.17,29.59,37,17,37,0.00
2013-3-7,42,30,23,31,24,20,92,78,58,30.29,30.12,21,10,26,0.00
2013-3-8,51,36,24,23,18,8,85,52,26,30.35,30.25,15,5,15,0.00
2013-3-9,56,39,35,26,15,10,49,38,28,30.35,30.25,4,0,8,0.00
2013-3-10,62,45,42,34,27,25,57,48,33,30.27,30.14,5,0,8,0.00
2013-3-11,49,45,43,48,42,33,97,89,60,30.17,29.86,10,1,10,0.74
2013-3-12,50,45,37,49,40,25,100,84,45,30.00,29.74,21,6,21,0.37
2013-3-13,39,35,25,30,23,14,76,62,44,30.14,29.99,26,9,26,0.00
2013-3-14,41,29,20,19,14,11,74,56,30,30.32,30.15,31,7,31,0.00